sensor_id;sensor_type;location;lat;lon;timestamp;pressure;altitude;pressure_sealevel;temperature;humidity
34081;BME280;20358;50.272;19.026;2022-10-03T00:01:58;98103.13;;;10.07;86.44
34081;BME280;20358;50.272;19.026;2022-10-03T00:05:23;98108.34;;;10.07;86.79
34081;BME280;20358;50.272;19.026;2022-10-03T00:16:24;98097.13;;;10.05;86.71
34081;BME280;20358;50.272;19.026;2022-10-03T00:19:49;98088.34;;;10.06;86.71
34081;BME280;20358;50.272;19.026;2022-10-03T00:23:01;98080.31;;;10.09;86.75
34081;BME280;20358;50.272;19.026;2022-10-03T00:26:29;98087.25;;;10.10;86.48
34081;BME280;20358;50.272;19.026;2022-10-03T00:30:12;98083.50;;;10.14;86.60
34081;BME280;20358;50.272;19.026;2022-10-03T00:33:48;98079.22;;;10.13;86.70
34081;BME280;20358;50.272;19.026;2022-10-03T00:37:23;98081.56;;;10.18;86.53
34081;BME280;20358;50.272;19.026;2022-10-03T00:41:14;98081.50;;;10.19;86.22
34081;BME280;20358;50.272;19.026;2022-10-03T00:45:25;98075.47;;;10.17;86.13
34081;BME280;20358;50.272;19.026;2022-10-03T00:49:19;98072.13;;;10.15;86.25
34081;BME280;20358;50.272;19.026;2022-10-03T00:52:58;98063.41;;;10.15;86.16
34081;BME280;20358;50.272;19.026;2022-10-03T00:56:48;98067.03;;;10.12;86.06
34081;BME280;20358;50.272;19.026;2022-10-03T01:00:19;98060.88;;;10.13;86.35
34081;BME280;20358;50.272;19.026;2022-10-03T01:03:45;98063.22;;;10.18;86.46
34081;BME280;20358;50.272;19.026;2022-10-03T01:07:28;98061.47;;;10.18;85.90
34081;BME280;20358;50.272;19.026;2022-10-03T01:10:59;98062.31;;;10.19;86.19
34081;BME280;20358;50.272;19.026;2022-10-03T01:14:35;98055.66;;;10.13;86.42
34081;BME280;20358;50.272;19.026;2022-10-03T01:26:13;98058.50;;;10.24;86.17
34081;BME280;20358;50.272;19.026;2022-10-03T01:33:17;98065.59;;;10.22;86.31
34081;BME280;20358;50.272;19.026;2022-10-03T01:36:31;98073.44;;;10.22;86.17
34081;BME280;20358;50.272;19.026;2022-10-03T01:39:49;98084.69;;;10.24;86.46
34081;BME280;20358;50.272;19.026;2022-10-03T01:43:16;98068.31;;;10.21;86.48
34081;BME280;20358;50.272;19.026;2022-10-03T01:46:34;98065.78;;;10.19;86.57
34081;BME280;20358;50.272;19.026;2022-10-03T01:49:47;98062.97;;;10.22;86.64
34081;BME280;20358;50.272;19.026;2022-10-03T01:52:59;98052.59;;;10.21;86.96
34081;BME280;20358;50.272;19.026;2022-10-03T01:56:13;98053.78;;;10.15;87.17
34081;BME280;20358;50.272;19.026;2022-10-03T01:59:28;98050.41;;;10.13;87.74
34081;BME280;20358;50.272;19.026;2022-10-03T02:02:44;98043.84;;;10.06;88.08
34081;BME280;20358;50.272;19.026;2022-10-03T02:05:58;98038.97;;;10.00;88.52
34081;BME280;20358;50.272;19.026;2022-10-03T02:09:18;98063.28;;;10.02;88.68
34081;BME280;20358;50.272;19.026;2022-10-03T02:12:31;98057.34;;;9.99;88.64
34081;BME280;20358;50.272;19.026;2022-10-03T02:15:49;98063.44;;;9.99;88.82
34081;BME280;20358;50.272;19.026;2022-10-03T02:19:05;98047.75;;;9.99;88.84
34081;BME280;20358;50.272;19.026;2022-10-03T02:22:15;98057.78;;;9.91;89.23
34081;BME280;20358;50.272;19.026;2022-10-03T02:25:51;98043.03;;;9.90;89.34
34081;BME280;20358;50.272;19.026;2022-10-03T02:29:15;98061.53;;;9.87;89.10
34081;BME280;20358;50.272;19.026;2022-10-03T02:36:44;98060.84;;;9.83;89.50
34081;BME280;20358;50.272;19.026;2022-10-03T02:40:25;98064.31;;;9.84;89.70
34081;BME280;20358;50.272;19.026;2022-10-03T02:44:00;98065.84;;;9.88;89.56
34081;BME280;20358;50.272;19.026;2022-10-03T02:55:26;98058.13;;;10.01;89.26
34081;BME280;20358;50.272;19.026;2022-10-03T02:59:03;98069.34;;;10.03;88.97
34081;BME280;20358;50.272;19.026;2022-10-03T03:02:55;98062.94;;;10.08;88.95
34081;BME280;20358;50.272;19.026;2022-10-03T03:06:51;98067.03;;;10.12;88.77
34081;BME280;20358;50.272;19.026;2022-10-03T03:10:29;98072.13;;;10.15;88.66
34081;BME280;20358;50.272;19.026;2022-10-03T03:14:11;98074.72;;;10.15;88.37
34081;BME280;20358;50.272;19.026;2022-10-03T03:17:28;98059.03;;;10.15;88.46
34081;BME280;20358;50.272;19.026;2022-10-03T03:20:53;98078.88;;;10.19;88.44
34081;BME280;20358;50.272;19.026;2022-10-03T03:24:32;98077.75;;;10.23;87.98
34081;BME280;20358;50.272;19.026;2022-10-03T03:27:53;98063.75;;;10.24;87.80
34081;BME280;20358;50.272;19.026;2022-10-03T03:31:09;98079.44;;;10.24;87.13
34081;BME280;20358;50.272;19.026;2022-10-03T03:34:21;98089.94;;;10.24;87.09
34081;BME280;20358;50.272;19.026;2022-10-03T03:37:38;98074.00;;;10.27;87.31
34081;BME280;20358;50.272;19.026;2022-10-03T03:41:06;98065.94;;;10.32;86.91
34081;BME280;20358;50.272;19.026;2022-10-03T03:44:36;98071.06;;;10.33;86.73
34081;BME280;20358;50.272;19.026;2022-10-03T03:48:08;98074.63;;;10.32;86.52
34081;BME280;20358;50.272;19.026;2022-10-03T03:51:22;98070.34;;;10.31;86.29
34081;BME280;20358;50.272;19.026;2022-10-03T03:54:59;98071.19;;;10.32;85.85
34081;BME280;20358;50.272;19.026;2022-10-03T03:58:35;98067.19;;;10.25;85.40
34081;BME280;20358;50.272;19.026;2022-10-03T04:05:25;98074.31;;;10.07;87.07
34081;BME280;20358;50.272;19.026;2022-10-03T04:08:51;98051.31;;;9.98;87.60
34081;BME280;20358;50.272;19.026;2022-10-03T04:12:09;98079.69;;;9.90;87.51
34081;BME280;20358;50.272;19.026;2022-10-03T04:15:51;98062.44;;;9.86;88.29
34081;BME280;20358;50.272;19.026;2022-10-03T04:19:09;98069.53;;;9.84;88.44
34081;BME280;20358;50.272;19.026;2022-10-03T04:22:27;98060.03;;;9.83;88.43
34081;BME280;20358;50.272;19.026;2022-10-03T04:26:10;98052.19;;;9.83;88.44
34081;BME280;20358;50.272;19.026;2022-10-03T04:29:33;98057.47;;;9.81;88.30
34081;BME280;20358;50.272;19.026;2022-10-03T04:33:09;98069.53;;;9.84;87.96
34081;BME280;20358;50.272;19.026;2022-10-03T04:36:40;98055.72;;;9.82;88.17
34081;BME280;20358;50.272;19.026;2022-10-03T04:40:00;98082.22;;;9.76;88.86
34081;BME280;20358;50.272;19.026;2022-10-03T04:43:17;98080.88;;;9.69;88.94
34081;BME280;20358;50.272;19.026;2022-10-03T04:46:28;98135.38;;;9.61;89.67
34081;BME280;20358;50.272;19.026;2022-10-03T04:49:43;98066.78;;;9.56;90.06
34081;BME280;20358;50.272;19.026;2022-10-03T04:53:00;98076.50;;;9.54;90.11
34081;BME280;20358;50.272;19.026;2022-10-03T04:56:23;98074.94;;;9.50;90.31
34081;BME280;20358;50.272;19.026;2022-10-03T04:59:42;98084.91;;;9.43;90.48
34081;BME280;20358;50.272;19.026;2022-10-03T05:02:57;98100.44;;;9.31;90.69
34081;BME280;20358;50.272;19.026;2022-10-03T05:06:26;98086.91;;;9.23;91.20
34081;BME280;20358;50.272;19.026;2022-10-03T05:09:44;98084.47;;;9.19;91.68
34081;BME280;20358;50.272;19.026;2022-10-03T05:12:59;98082.00;;;9.16;92.13
34081;BME280;20358;50.272;19.026;2022-10-03T05:16:18;98076.94;;;9.13;92.48
34081;BME280;20358;50.272;19.026;2022-10-03T05:19:40;98094.31;;;9.14;92.36
34081;BME280;20358;50.272;19.026;2022-10-03T05:22:59;98069.94;;;9.14;92.52
34081;BME280;20358;50.272;19.026;2022-10-03T05:26:17;98073.41;;;9.14;92.78
34081;BME280;20358;50.272;19.026;2022-10-03T05:29:50;98095.16;;;9.15;92.67
34081;BME280;20358;50.272;19.026;2022-10-03T05:33:06;98092.47;;;9.16;92.58
34081;BME280;20358;50.272;19.026;2022-10-03T05:36:27;98083.56;;;9.21;92.31
34081;BME280;20358;50.272;19.026;2022-10-03T05:39:44;98080.09;;;9.20;92.24
34081;BME280;20358;50.272;19.026;2022-10-03T05:43:03;98092.31;;;9.19;92.13
34081;BME280;20358;50.272;19.026;2022-10-03T05:46:20;98084.47;;;9.19;92.28
34081;BME280;20358;50.272;19.026;2022-10-03T05:49:49;98084.38;;;9.21;92.21
34081;BME280;20358;50.272;19.026;2022-10-03T05:53:17;98080.00;;;9.22;92.44
34081;BME280;20358;50.272;19.026;2022-10-03T05:56:46;98099.03;;;9.24;92.23
34081;BME280;20358;50.272;19.026;2022-10-03T06:00:07;98092.00;;;9.26;91.99
34081;BME280;20358;50.272;19.026;2022-10-03T06:07:08;98105.81;;;9.28;91.39
34081;BME280;20358;50.272;19.026;2022-10-03T06:10:47;98103.81;;;9.33;91.29
34081;BME280;20358;50.272;19.026;2022-10-03T06:14:17;98087.78;;;9.39;90.90
34081;BME280;20358;50.272;19.026;2022-10-03T06:18:01;98128.38;;;9.46;90.27
34081;BME280;20358;50.272;19.026;2022-10-03T06:21:30;98124.75;;;9.48;89.68
34081;BME280;20358;50.272;19.026;2022-10-03T06:28:40;98133.69;;;9.60;89.21
34081;BME280;20358;50.272;19.026;2022-10-03T06:36:17;98110.41;;;9.71;88.60
34081;BME280;20358;50.272;19.026;2022-10-03T06:47:08;98113.44;;;9.79;86.99
34081;BME280;20358;50.272;19.026;2022-10-03T06:50:41;98122.03;;;9.81;86.12
34081;BME280;20358;50.272;19.026;2022-10-03T06:54:16;98106.19;;;9.84;85.46
34081;BME280;20358;50.272;19.026;2022-10-03T07:01:56;98141.63;;;9.90;84.54
34081;BME280;20358;50.272;19.026;2022-10-03T07:05:30;98137.09;;;9.93;84.98
34081;BME280;20358;50.272;19.026;2022-10-03T07:09:26;98136.88;;;9.96;84.58
34081;BME280;20358;50.272;19.026;2022-10-03T07:13:10;98165.34;;;10.02;83.21
34081;BME280;20358;50.272;19.026;2022-10-03T07:24:35;98142.94;;;10.28;81.81
34081;BME280;20358;50.272;19.026;2022-10-03T07:31:41;98155.13;;;10.45;81.67
34081;BME280;20358;50.272;19.026;2022-10-03T07:35:21;98119.59;;;10.55;81.84
34081;BME280;20358;50.272;19.026;2022-10-03T07:42:53;98132.47;;;10.87;80.93
34081;BME280;20358;50.272;19.026;2022-10-03T07:46:28;98141.59;;;10.96;79.31
34081;BME280;20358;50.272;19.026;2022-10-03T07:50:02;98144.97;;;10.98;79.21
34081;BME280;20358;50.272;19.026;2022-10-03T07:57:23;98175.59;;;11.12;78.17
34081;BME280;20358;50.272;19.026;2022-10-03T08:00:52;98132.25;;;11.06;78.24
34081;BME280;20358;50.272;19.026;2022-10-03T08:08:21;98176.06;;;11.04;78.80
34081;BME280;20358;50.272;19.026;2022-10-03T08:11:50;98159.16;;;10.80;80.54
34081;BME280;20358;50.272;19.026;2022-10-03T08:15:09;98155.94;;;10.61;81.53
34081;BME280;20358;50.272;19.026;2022-10-03T08:18:31;98138.06;;;10.37;83.00
34081;BME280;20358;50.272;19.026;2022-10-03T08:21:54;98139.09;;;10.19;84.68
34081;BME280;20358;50.272;19.026;2022-10-03T08:25:36;98159.78;;;10.08;85.97
34081;BME280;20358;50.272;19.026;2022-10-03T08:29:24;98141.78;;;10.02;86.52
34081;BME280;20358;50.272;19.026;2022-10-03T08:32:56;98169.84;;;10.00;87.23
34081;BME280;20358;50.272;19.026;2022-10-03T08:36:26;98148.38;;;10.09;87.34
34081;BME280;20358;50.272;19.026;2022-10-03T08:40:03;98150.91;;;10.11;86.46
34081;BME280;20358;50.272;19.026;2022-10-03T08:44:02;98156.41;;;10.06;86.72
34081;BME280;20358;50.272;19.026;2022-10-03T09:03:10;98140.44;;;10.11;88.97
34081;BME280;20358;50.272;19.026;2022-10-03T09:07:15;98144.81;;;10.10;89.23
34081;BME280;20358;50.272;19.026;2022-10-03T09:10:44;98149.91;;;10.13;89.33
34081;BME280;20358;50.272;19.026;2022-10-03T09:14:21;98140.34;;;10.12;89.31
34081;BME280;20358;50.272;19.026;2022-10-03T09:21:37;98134.88;;;10.01;90.06
34081;BME280;20358;50.272;19.026;2022-10-03T09:25:09;98153.13;;;10.03;90.37
34081;BME280;20358;50.272;19.026;2022-10-03T09:28:55;98164.06;;;10.09;90.15
34081;BME280;20358;50.272;19.026;2022-10-03T09:36:12;98160.03;;;10.19;89.10
34081;BME280;20358;50.272;19.026;2022-10-03T09:39:56;98160.69;;;10.23;89.38
34081;BME280;20358;50.272;19.026;2022-10-03T09:51:01;98175.25;;;10.28;90.39
34081;BME280;20358;50.272;19.026;2022-10-03T09:58:26;98146.81;;;10.52;90.36
34081;BME280;20358;50.272;19.026;2022-10-03T10:01:46;98139.25;;;10.62;89.09
34081;BME280;20358;50.272;19.026;2022-10-03T10:05:08;98157.81;;;10.73;88.85
34081;BME280;20358;50.272;19.026;2022-10-03T10:16:24;98174.81;;;10.81;86.62
34081;BME280;20358;50.272;19.026;2022-10-03T10:19:52;98173.41;;;10.90;85.62
34081;BME280;20358;50.272;19.026;2022-10-03T10:23:26;98194.75;;;10.84;84.53
34081;BME280;20358;50.272;19.026;2022-10-03T10:30:21;98170.03;;;10.88;84.29
34081;BME280;20358;50.272;19.026;2022-10-03T10:37:54;98172.38;;;10.92;84.21
34081;BME280;20358;50.272;19.026;2022-10-03T10:45:37;98172.69;;;11.02;83.20
34081;BME280;20358;50.272;19.026;2022-10-03T10:57:05;98185.34;;;10.80;85.79
34081;BME280;20358;50.272;19.026;2022-10-03T11:00:19;98181.56;;;10.56;86.83
34081;BME280;20358;50.272;19.026;2022-10-03T11:03:53;98181.31;;;10.45;87.74
34081;BME280;20358;50.272;19.026;2022-10-03T11:07:29;98192.28;;;10.35;88.54
34081;BME280;20358;50.272;19.026;2022-10-03T11:10:56;98192.78;;;10.26;88.83
34081;BME280;20358;50.272;19.026;2022-10-03T11:14:59;98196.59;;;10.21;89.21
34081;BME280;20358;50.272;19.026;2022-10-03T11:22:46;98207.81;;;10.07;90.58
34081;BME280;20358;50.272;19.026;2022-10-03T11:37:23;98217.13;;;10.13;90.77
34081;BME280;20358;50.272;19.026;2022-10-03T11:40:49;98225.56;;;10.18;90.70
34081;BME280;20358;50.272;19.026;2022-10-03T11:44:07;98220.06;;;10.22;90.99
34081;BME280;20358;50.272;19.026;2022-10-03T11:47:42;98206.50;;;10.31;90.70
34081;BME280;20358;50.272;19.026;2022-10-03T11:50:52;98218.59;;;10.34;90.18
34081;BME280;20358;50.272;19.026;2022-10-03T11:54:05;98207.25;;;10.33;89.46
34081;BME280;20358;50.272;19.026;2022-10-03T11:57:37;98218.47;;;10.35;88.82
34081;BME280;20358;50.272;19.026;2022-10-03T12:00:46;98226.94;;;10.40;89.10
34081;BME280;20358;50.272;19.026;2022-10-03T12:04:02;98223.38;;;10.41;87.15
34081;BME280;20358;50.272;19.026;2022-10-03T12:07:26;98229.22;;;10.47;87.53
34081;BME280;20358;50.272;19.026;2022-10-03T12:11:05;98250.00;;;10.50;87.89
34081;BME280;20358;50.272;19.026;2022-10-03T12:14:24;98220.44;;;10.48;87.86
34081;BME280;20358;50.272;19.026;2022-10-03T12:17:34;98233.69;;;10.45;88.70
34081;BME280;20358;50.272;19.026;2022-10-03T12:21:03;98217.97;;;10.45;89.04
34081;BME280;20358;50.272;19.026;2022-10-03T12:24:21;98224.31;;;10.40;89.46
34081;BME280;20358;50.272;19.026;2022-10-03T12:27:36;98232.53;;;10.34;89.78
34081;BME280;20358;50.272;19.026;2022-10-03T12:30:52;98250.06;;;10.32;90.12
34081;BME280;20358;50.272;19.026;2022-10-03T12:34:07;98262.41;;;10.30;90.54
34081;BME280;20358;50.272;19.026;2022-10-03T12:37:39;98255.63;;;10.26;91.11
34081;BME280;20358;50.272;19.026;2022-10-03T12:40:50;98253.19;;;10.23;91.63
34081;BME280;20358;50.272;19.026;2022-10-03T12:44:15;98264.28;;;10.28;91.69
34081;BME280;20358;50.272;19.026;2022-10-03T12:47:44;98257.19;;;10.30;91.04
34081;BME280;20358;50.272;19.026;2022-10-03T12:51:01;98278.97;;;10.31;90.88
34081;BME280;20358;50.272;19.026;2022-10-03T12:54:19;98281.34;;;10.35;90.63
34081;BME280;20358;50.272;19.026;2022-10-03T12:57:44;98268.81;;;10.40;90.13
34081;BME280;20358;50.272;19.026;2022-10-03T13:00:57;98259.88;;;10.45;89.77
34081;BME280;20358;50.272;19.026;2022-10-03T13:04:20;98272.41;;;10.55;89.53
34081;BME280;20358;50.272;19.026;2022-10-03T13:07:37;98263.94;;;10.66;89.22
34081;BME280;20358;50.272;19.026;2022-10-03T13:10:50;98257.13;;;10.77;88.40
34081;BME280;20358;50.272;19.026;2022-10-03T13:14:08;98262.03;;;10.83;87.56
34081;BME280;20358;50.272;19.026;2022-10-03T13:17:28;98259.31;;;10.85;86.84
34081;BME280;20358;50.272;19.026;2022-10-03T13:20:48;98248.66;;;10.88;86.77
34081;BME280;20358;50.272;19.026;2022-10-03T13:24:05;98276.06;;;10.82;86.86
34081;BME280;20358;50.272;19.026;2022-10-03T13:27:25;98282.69;;;10.74;87.11
34081;BME280;20358;50.272;19.026;2022-10-03T13:30:44;98254.72;;;10.59;87.97
34081;BME280;20358;50.272;19.026;2022-10-03T13:33:57;98272.03;;;10.46;89.09
34081;BME280;20358;50.272;19.026;2022-10-03T13:37:14;98286.41;;;10.38;90.10
34081;BME280;20358;50.272;19.026;2022-10-03T13:45:00;98306.66;;;10.19;90.82
34081;BME280;20358;50.272;19.026;2022-10-03T13:48:11;98273.41;;;10.04;90.60
34081;BME280;20358;50.272;19.026;2022-10-03T13:51:27;98279.22;;;9.94;90.87
34081;BME280;20358;50.272;19.026;2022-10-03T13:58:30;98282.91;;;9.74;92.38
34081;BME280;20358;50.272;19.026;2022-10-03T14:01:47;98295.47;;;9.67;92.97
34081;BME280;20358;50.272;19.026;2022-10-03T14:12:44;98261.22;;;9.72;94.42
34081;BME280;20358;50.272;19.026;2022-10-03T14:16:04;98269.69;;;9.77;94.75
34081;BME280;20358;50.272;19.026;2022-10-03T14:19:20;98260.97;;;9.76;94.69
34081;BME280;20358;50.272;19.026;2022-10-03T14:22:39;98268.72;;;9.78;95.36
34081;BME280;20358;50.272;19.026;2022-10-03T14:25:56;98271.03;;;9.84;95.31
34081;BME280;20358;50.272;19.026;2022-10-03T14:29:14;98274.19;;;9.91;95.56
34081;BME280;20358;50.272;19.026;2022-10-03T14:32:28;98279.94;;;9.97;95.73
34081;BME280;20358;50.272;19.026;2022-10-03T14:36:01;98285.69;;;10.04;95.62
34081;BME280;20358;50.272;19.026;2022-10-03T14:39:24;98289.72;;;10.09;95.32
34081;BME280;20358;50.272;19.026;2022-10-03T14:46:18;98283.38;;;10.30;94.69
34081;BME280;20358;50.272;19.026;2022-10-03T14:49:26;98296.88;;;10.38;94.24
34081;BME280;20358;50.272;19.026;2022-10-03T14:52:56;98291.16;;;10.48;93.15
34081;BME280;20358;50.272;19.026;2022-10-03T14:56:07;98300.47;;;10.53;92.57
34081;BME280;20358;50.272;19.026;2022-10-03T14:59:18;98295.88;;;10.57;92.00
34081;BME280;20358;50.272;19.026;2022-10-03T15:02:29;98291.16;;;10.63;92.24
34081;BME280;20358;50.272;19.026;2022-10-03T15:05:53;98309.22;;;10.68;91.41
34081;BME280;20358;50.272;19.026;2022-10-03T15:09:09;98299.66;;;10.67;90.95
34081;BME280;20358;50.272;19.026;2022-10-03T15:12:17;98302.13;;;10.70;90.80
34081;BME280;20358;50.272;19.026;2022-10-03T15:15:28;98305.50;;;10.72;90.69
34081;BME280;20358;50.272;19.026;2022-10-03T15:18:49;98303.88;;;10.69;89.91
34081;BME280;20358;50.272;19.026;2022-10-03T15:22:03;98310.25;;;10.65;90.28
34081;BME280;20358;50.272;19.026;2022-10-03T15:25:13;98307.69;;;10.64;90.01
34081;BME280;20358;50.272;19.026;2022-10-03T15:28:25;98322.50;;;10.65;89.34
34081;BME280;20358;50.272;19.026;2022-10-03T15:31:34;98315.38;;;10.67;89.52
34081;BME280;20358;50.272;19.026;2022-10-03T15:34:44;98314.47;;;10.68;88.91
34081;BME280;20358;50.272;19.026;2022-10-03T15:37:52;98315.50;;;10.65;88.63
34081;BME280;20358;50.272;19.026;2022-10-03T15:41:07;98317.34;;;10.63;87.89
34081;BME280;20358;50.272;19.026;2022-10-03T15:44:17;98322.06;;;10.57;88.02
34081;BME280;20358;50.272;19.026;2022-10-03T15:47:26;98324.09;;;10.52;87.80
34081;BME280;20358;50.272;19.026;2022-10-03T15:55:24;98327.16;;;10.44;87.69
34081;BME280;20358;50.272;19.026;2022-10-03T16:10:21;98329.28;;;10.20;88.19
34081;BME280;20358;50.272;19.026;2022-10-03T16:17:17;98346.84;;;10.18;87.90
34081;BME280;20358;50.272;19.026;2022-10-03T16:20:29;98368.50;;;10.22;87.87
34081;BME280;20358;50.272;19.026;2022-10-03T16:23:40;98362.41;;;10.21;87.72
34081;BME280;20358;50.272;19.026;2022-10-03T16:26:54;98353.59;;;10.22;87.66
34081;BME280;20358;50.272;19.026;2022-10-03T16:30:18;98374.53;;;10.22;87.49
34081;BME280;20358;50.272;19.026;2022-10-03T16:33:27;98346.84;;;10.18;87.50
34081;BME280;20358;50.272;19.026;2022-10-03T16:36:41;98367.94;;;10.15;87.71
34081;BME280;20358;50.272;19.026;2022-10-03T16:39:54;98367.94;;;10.15;87.55
34081;BME280;20358;50.272;19.026;2022-10-03T16:43:06;98356.72;;;10.13;87.53
34081;BME280;20358;50.272;19.026;2022-10-03T16:46:17;98365.44;;;10.14;87.73
34081;BME280;20358;50.272;19.026;2022-10-03T16:49:32;98376.97;;;10.10;88.28
34081;BME280;20358;50.272;19.026;2022-10-03T16:52:57;98371.81;;;10.08;88.46
34081;BME280;20358;50.272;19.026;2022-10-03T16:56:06;98370.13;;;10.07;88.60
34081;BME280;20358;50.272;19.026;2022-10-03T16:59:18;98378.81;;;10.08;89.07
34081;BME280;20358;50.272;19.026;2022-10-03T17:02:27;98382.16;;;10.11;88.95
34081;BME280;20358;50.272;19.026;2022-10-03T17:05:42;98376.56;;;10.17;89.21
34081;BME280;20358;50.272;19.026;2022-10-03T17:08:51;98370.25;;;10.21;88.89
34081;BME280;20358;50.272;19.026;2022-10-03T17:11:59;98372.72;;;10.24;88.69
34081;BME280;20358;50.272;19.026;2022-10-03T17:15:17;98372.53;;;10.27;88.69
34081;BME280;20358;50.272;19.026;2022-10-03T17:18:27;98372.72;;;10.24;88.88
34081;BME280;20358;50.272;19.026;2022-10-03T17:21:37;98359.44;;;10.27;89.24
34081;BME280;20358;50.272;19.026;2022-10-03T17:24:48;98364.63;;;10.29;89.09
34081;BME280;20358;50.272;19.026;2022-10-03T17:27:57;98375.03;;;10.30;89.33
34081;BME280;20358;50.272;19.026;2022-10-03T17:31:21;98373.09;;;10.34;89.13
34081;BME280;20358;50.272;19.026;2022-10-03T17:34:33;98370.53;;;10.32;89.03
34081;BME280;20358;50.272;19.026;2022-10-03T17:37:59;98374.97;;;10.32;89.16
34081;BME280;20358;50.272;19.026;2022-10-03T17:41:33;98368.88;;;10.31;89.53
34081;BME280;20358;50.272;19.026;2022-10-03T17:44:54;98375.97;;;10.29;89.20
34081;BME280;20358;50.272;19.026;2022-10-03T17:48:15;98368.41;;;10.23;89.57
34081;BME280;20358;50.272;19.026;2022-10-03T17:51:29;98376.16;;;10.25;89.72
34081;BME280;20358;50.272;19.026;2022-10-03T17:54:37;98385.63;;;10.27;89.47
34081;BME280;20358;50.272;19.026;2022-10-03T17:57:47;98381.97;;;10.31;89.57
34081;BME280;20358;50.272;19.026;2022-10-03T18:01:01;98389.50;;;10.37;89.27
34081;BME280;20358;50.272;19.026;2022-10-03T18:04:17;98378.84;;;10.40;89.23
34081;BME280;20358;50.272;19.026;2022-10-03T18:07:25;98381.28;;;10.43;88.94
34081;BME280;20358;50.272;19.026;2022-10-03T18:10:35;98379.38;;;10.47;88.91
34081;BME280;20358;50.272;19.026;2022-10-03T18:13:44;98396.59;;;10.51;88.49
34081;BME280;20358;50.272;19.026;2022-10-03T18:16:53;98384.28;;;10.53;87.93
34081;BME280;20358;50.272;19.026;2022-10-03T18:20:19;98385.91;;;10.56;88.05
34081;BME280;20358;50.272;19.026;2022-10-03T18:23:36;98396.53;;;10.53;87.53
34081;BME280;20358;50.272;19.026;2022-10-03T18:27:06;98399.16;;;10.53;87.79
34081;BME280;20358;50.272;19.026;2022-10-03T18:30:18;98409.63;;;10.53;87.98
34081;BME280;20358;50.272;19.026;2022-10-03T18:33:28;98392.97;;;10.54;87.67
34081;BME280;20358;50.272;19.026;2022-10-03T18:36:42;98407.63;;;10.58;87.70
34081;BME280;20358;50.272;19.026;2022-10-03T18:39:51;98395.44;;;10.57;87.51
34081;BME280;20358;50.272;19.026;2022-10-03T18:43:01;98398.16;;;10.55;87.96
34081;BME280;20358;50.272;19.026;2022-10-03T18:46:13;98404.03;;;10.59;87.74
34081;BME280;20358;50.272;19.026;2022-10-03T18:49:23;98404.03;;;10.59;87.46
34081;BME280;20358;50.272;19.026;2022-10-03T18:52:45;98408.53;;;10.57;87.02
34081;BME280;20358;50.272;19.026;2022-10-03T18:55:57;98402.69;;;10.52;87.32
34081;BME280;20358;50.272;19.026;2022-10-03T18:59:10;98406.41;;;10.48;88.04
34081;BME280;20358;50.272;19.026;2022-10-03T19:02:24;98412.72;;;10.43;88.10
34081;BME280;20358;50.272;19.026;2022-10-03T19:05:34;98429.09;;;10.31;88.70
34081;BME280;20358;50.272;19.026;2022-10-03T19:08:48;98421.06;;;10.17;88.95
34081;BME280;20358;50.272;19.026;2022-10-03T19:12:00;98422.63;;;10.04;89.21
34081;BME280;20358;50.272;19.026;2022-10-03T19:15:16;98449.59;;;9.89;89.49
34081;BME280;20358;50.272;19.026;2022-10-03T19:18:25;98431.44;;;9.69;89.32
34081;BME280;20358;50.272;19.026;2022-10-03T19:21:37;98444.56;;;9.50;89.51
34081;BME280;20358;50.272;19.026;2022-10-03T19:24:48;98417.25;;;9.39;90.37
34081;BME280;20358;50.272;19.026;2022-10-03T19:28:07;98434.78;;;9.37;91.58
34081;BME280;20358;50.272;19.026;2022-10-03T19:31:21;98427.88;;;9.36;91.82
34081;BME280;20358;50.272;19.026;2022-10-03T19:34:34;98430.34;;;9.39;91.96
34081;BME280;20358;50.272;19.026;2022-10-03T19:37:43;98441.47;;;9.42;92.29
34081;BME280;20358;50.272;19.026;2022-10-03T19:40:57;98443.19;;;9.43;92.66
34081;BME280;20358;50.272;19.026;2022-10-03T19:44:05;98436.03;;;9.47;93.46
34081;BME280;20358;50.272;19.026;2022-10-03T19:47:15;98443.50;;;9.54;94.33
34081;BME280;20358;50.272;19.026;2022-10-03T19:50:26;98426.50;;;9.63;94.53
34081;BME280;20358;50.272;19.026;2022-10-03T19:53:33;98431.44;;;9.69;94.55
34081;BME280;20358;50.272;19.026;2022-10-03T19:56:42;98431.13;;;9.75;94.48
34081;BME280;20358;50.272;19.026;2022-10-03T19:59:51;98455.31;;;9.80;94.27
34081;BME280;20358;50.272;19.026;2022-10-03T20:03:13;98421.91;;;9.85;93.99
34081;BME280;20358;50.272;19.026;2022-10-03T20:06:26;98434.22;;;9.83;93.54
34081;BME280;20358;50.272;19.026;2022-10-03T20:09:35;98423.75;;;9.83;93.66
34081;BME280;20358;50.272;19.026;2022-10-03T20:12:49;98424.66;;;9.82;93.41
34081;BME280;20358;50.272;19.026;2022-10-03T20:15:56;98430.81;;;9.81;93.37
34081;BME280;20358;50.272;19.026;2022-10-03T20:19:07;98422.19;;;9.79;93.08
34081;BME280;20358;50.272;19.026;2022-10-03T20:22:13;98427.56;;;9.76;93.22
34081;BME280;20358;50.272;19.026;2022-10-03T20:25:24;98434.66;;;9.74;93.20
34081;BME280;20358;50.272;19.026;2022-10-03T20:28:50;98416.34;;;9.74;93.21
34081;BME280;20358;50.272;19.026;2022-10-03T20:32:00;98429.72;;;9.68;93.71
34081;BME280;20358;50.272;19.026;2022-10-03T20:35:12;98426.09;;;9.70;93.70
34081;BME280;20358;50.272;19.026;2022-10-03T20:38:28;98428.72;;;9.70;93.67
34081;BME280;20358;50.272;19.026;2022-10-03T20:41:47;98424.19;;;9.74;93.67
34081;BME280;20358;50.272;19.026;2022-10-03T20:45:04;98427.72;;;9.73;93.81
34081;BME280;20358;50.272;19.026;2022-10-03T20:48:22;98432.97;;;9.73;93.71
34081;BME280;20358;50.272;19.026;2022-10-03T20:51:39;98419.88;;;9.73;94.05
34081;BME280;20358;50.272;19.026;2022-10-03T20:54:47;98417.25;;;9.73;93.73
34081;BME280;20358;50.272;19.026;2022-10-03T20:58:01;98423.28;;;9.75;94.00